Time;durP1;ratioP1;P1;durP2;ratioP2;P2;SDS_P1;SDS_P2;PMS_P1;PMS_P2;Temp;Humidity;BMP_temperature;BMP_pressure;BME280_temperature;BME280_humidity;BME280_pressure;Samples;Min_cycle;Max_cycle;Signal;HPM_P1;HPM_P2
2024/01/11 00:04:50;;;;;;;14.75;8.57;;;;;;;-8.53;91.29;146536.34;10628776;27;20057;-73
2024/01/11 00:09:52;;;;;;;12.07;8.45;;;;;;;-8.73;94.65;146486.78;10628110;27;20126;-74
2024/01/11 00:14:53;;;;;;;10.48;8.18;;;;;;;-8.60;94.92;146517.28;10629172;27;20114;-74
2024/01/11 00:19:55;;;;;;;10.25;9.20;;;;;;;-8.47;95.15;146550.31;10627450;27;20043;-73
2024/01/11 00:24:57;;;;;;;9.27;7.78;;;;;;;-8.64;93.78;146508.38;10627283;27;20092;-74
2024/01/11 00:29:59;;;;;;;15.13;8.68;;;;;;;-8.24;93.22;146608.69;10628172;27;20086;-73
2024/01/11 00:35:00;;;;;;;10.52;8.63;;;;;;;-8.15;92.72;146630.28;10627773;27;20115;-74
2024/01/11 00:40:03;;;;;;;15.30;8.32;;;;;;;-8.22;92.70;146612.53;10642953;27;20043;-74
2024/01/11 00:45:05;;;;;;;9.07;8.02;;;;;;;-8.48;93.59;146547.78;10627619;27;20483;-74
2024/01/11 00:50:07;;;;;;;11.05;8.52;;;;;;;-8.89;94.76;146446.16;10627560;27;20051;-74
2024/01/11 00:55:09;;;;;;;11.82;8.23;;;;;;;-8.99;96.53;146420.75;10636948;27;20035;-74
2024/01/11 01:00:13;;;;;;;12.07;7.85;;;;;;;-8.47;95.76;146551.56;10636208;27;20058;-74
2024/01/11 01:05:15;;;;;;;13.30;8.55;;;;;;;-8.84;95.24;146458.88;10651258;27;20125;-73
2024/01/11 01:10:17;;;;;;;15.20;9.85;;;;;;;-8.60;95.56;146518.53;10635580;27;20122;-74
2024/01/11 01:15:19;;;;;;;10.23;7.40;;;;;;;-8.59;95.32;146521.06;10635437;27;20096;-74
2024/01/11 01:20:21;;;;;;;11.80;7.97;;;;;;;-8.66;94.17;146503.31;10635288;27;20392;-73
2024/01/11 01:25:23;;;;;;;12.07;8.40;;;;;;;-9.09;94.64;146395.38;10634425;27;20039;-74
2024/01/11 01:30:25;;;;;;;12.02;8.90;;;;;;;-9.20;96.40;146369.97;10634640;27;20058;-73
2024/01/11 01:35:27;;;;;;;12.63;9.52;;;;;;;-9.26;96.67;146354.72;10634359;27;20123;-73
2024/01/11 01:40:31;;;;;;;12.40;8.60;;;;;;;-9.12;97.72;146387.72;10633872;27;20039;-74
2024/01/11 01:45:33;;;;;;;10.10;8.65;;;;;;;-9.01;98.02;146415.69;10649050;27;20043;-75
2024/01/11 01:50:35;;;;;;;12.88;9.60;;;;;;;-8.58;93.60;146522.38;10633598;27;20084;-75
2024/01/11 01:55:37;;;;;;;24.23;9.55;;;;;;;-8.90;95.38;146444.91;10633247;27;20390;-76
2024/01/11 02:00:41;;;;;;;27.33;10.45;;;;;;;-8.56;96.64;146528.72;10633056;27;20556;-75
2024/01/11 02:05:43;;;;;;;20.88;10.43;;;;;;;-8.60;96.25;146518.53;10631674;27;20035;-75
2024/01/11 02:10:46;;;;;;;16.65;8.68;;;;;;;-9.13;96.24;146386.47;10632030;27;20049;-75
2024/01/11 02:15:48;;;;;;;12.43;10.32;;;;;;;-9.12;98.72;146387.72;10631899;27;20049;-75
2024/01/11 02:20:50;;;;;;;17.73;10.70;;;;;;;-8.71;97.61;146490.63;10632896;27;20043;-75
2024/01/11 02:25:52;;;;;;;19.17;10.77;;;;;;;-8.53;95.83;146535.09;10633041;27;20406;-74
2024/01/11 02:30:53;;;;;;;14.57;9.20;;;;;;;-9.05;96.02;146405.53;10632543;27;20043;-74
2024/01/11 02:35:55;;;;;;;13.48;9.02;;;;;;;-9.42;97.46;146315.38;10649295;27;20047;-76
2024/01/11 02:40:58;;;;;;;13.00;9.25;;;;;;;-9.24;99.50;146359.81;10632056;27;20039;-75
2024/01/11 02:46:00;;;;;;;16.33;9.68;;;;;;;-9.04;100.00;146408.03;10631867;27;20479;-77
2024/01/11 02:51:02;;;;;;;15.63;10.00;;;;;;;-9.00;96.78;146419.47;10631236;27;20072;-76
2024/01/11 02:56:04;;;;;;;18.27;9.48;;;;;;;-9.07;97.64;146401.72;10632532;27;20559;-76
2024/01/11 03:01:06;;;;;;;19.95;10.23;;;;;;;-8.90;97.85;146444.91;10632673;27;20436;-76
2024/01/11 03:06:08;;;;;;;11.60;8.57;;;;;;;-8.74;97.37;146484.25;10629125;27;20047;-76
2024/01/11 03:11:10;;;;;;;11.95;8.07;;;;;;;-9.22;97.21;146363.63;10628717;27;20474;-77
2024/01/11 03:16:11;;;;;;;15.52;9.15;;;;;;;-9.47;98.24;146301.44;10629539;27;20027;-76
2024/01/11 03:21:13;;;;;;;13.38;9.18;;;;;;;-9.21;99.71;146366.13;10628042;27;20075;-76
2024/01/11 03:26:18;;;;;;;17.40;10.90;;;;;;;-8.99;95.93;146422.00;10629611;27;20049;-76
2024/01/11 03:31:20;;;;;;;16.67;9.15;;;;;;;-9.27;95.25;146352.19;10630435;27;20041;-76
2024/01/11 03:36:25;;;;;;;12.23;10.43;;;;;;;-9.38;97.88;146324.28;10630166;27;20114;-76
2024/01/11 03:41:27;;;;;;;14.13;9.55;;;;;;;-9.53;98.29;146286.19;10629746;27;20490;-75
2024/01/11 03:46:28;;;;;;;10.98;8.23;;;;;;;-9.30;98.07;146344.56;10627717;27;20084;-76
2024/01/11 03:51:30;;;;;;;11.60;8.75;;;;;;;-9.48;99.17;146298.88;10629073;27;20043;-76
2024/01/11 03:56:32;;;;;;;16.80;9.75;;;;;;;-9.24;98.45;146359.81;10628524;27;20035;-75
2024/01/11 04:01:40;;;;;;;18.30;9.32;;;;;;;-9.42;98.22;146314.13;10628880;27;20043;-76
2024/01/11 04:06:41;;;;;;;12.50;9.05;;;;;;;-8.99;98.93;146420.75;10627683;27;20043;-75
2024/01/11 04:11:43;;;;;;;17.58;9.27;;;;;;;-9.22;98.70;146364.88;10626896;27;20051;-78
2024/01/11 04:16:45;;;;;;;19.50;10.00;;;;;;;-9.23;98.49;146362.34;10643630;27;20088;-76
2024/01/11 04:21:47;;;;;;;16.52;10.73;;;;;;;-9.45;99.46;146307.75;10627812;27;20047;-76
2024/01/11 04:26:49;;;;;;;12.35;8.52;;;;;;;-9.44;98.47;146309.03;10626298;27;20046;-76
2024/01/11 04:31:50;;;;;;;11.95;9.25;;;;;;;-9.56;99.39;146278.56;10628147;27;20359;-75
2024/01/11 04:36:52;;;;;;;16.15;10.52;;;;;;;-9.42;99.62;146314.13;10627676;27;20487;-75
2024/01/11 04:41:54;;;;;;;14.25;10.00;;;;;;;-9.49;99.96;146297.59;10627944;27;20043;-75
2024/01/11 04:46:56;;;;;;;20.48;11.70;;;;;;;-9.45;100.00;146306.50;10627946;28;20043;-77
2024/01/11 04:51:58;;;;;;;18.45;11.50;;;;;;;-9.03;100.00;146410.56;10609342;27;20039;-75
2024/01/11 04:57:00;;;;;;;18.00;11.32;;;;;;;-9.39;99.44;146321.72;10627862;27;20069;-75
2024/01/11 05:02:02;;;;;;;18.30;12.75;;;;;;;-9.41;100.00;146316.66;10625765;27;20047;-75
2024/01/11 05:07:04;;;;;;;22.40;12.75;;;;;;;-9.24;100.00;146358.56;10626159;28;20114;-75
2024/01/11 05:12:06;;;;;;;19.60;13.35;;;;;;;-9.05;100.00;146405.53;10626092;27;20487;-76
2024/01/11 05:17:10;;;;;;;15.38;10.18;;;;;;;-9.07;100.00;146400.41;10627809;27;20088;-76
2024/01/11 05:22:12;;;;;;;16.50;10.95;;;;;;;-9.20;100.00;146369.97;10627346;27;20115;-75
2024/01/11 05:27:14;;;;;;;15.35;11.30;;;;;;;-9.38;100.00;146324.28;10626115;28;20046;-76
2024/01/11 05:32:15;;;;;;;17.60;11.18;;;;;;;-9.40;100.00;146319.19;10626048;27;20047;-75
2024/01/11 05:37:17;;;;;;;22.05;11.50;;;;;;;-9.05;100.00;146405.53;10629557;27;20051;-76
2024/01/11 05:42:19;;;;;;;16.77;12.20;;;;;;;-8.87;100.00;146451.22;10634932;27;20043;-76
2024/01/11 05:47:21;;;;;;;19.05;12.32;;;;;;;-9.27;100.00;146352.19;10636139;27;20118;-77
2024/01/11 05:52:23;;;;;;;19.98;12.27;;;;;;;-9.35;100.00;146331.88;10634068;27;20419;-75
2024/01/11 05:57:24;;;;;;;22.77;11.65;;;;;;;-9.36;100.00;146329.34;10633680;27;20047;-75
2024/01/11 06:02:27;;;;;;;21.80;12.90;;;;;;;-9.09;100.00;146396.63;10632960;27;20050;-75
2024/01/11 06:07:29;;;;;;;18.48;13.07;;;;;;;-9.27;100.00;146352.19;10632934;27;20039;-77
2024/01/11 06:12:31;;;;;;;29.65;14.48;;;;;;;-8.79;100.00;146471.56;10633520;27;20103;-76
2024/01/11 06:17:33;;;;;;;39.50;14.68;;;;;;;-9.12;99.02;146389.00;10633358;27;20490;-76
2024/01/11 06:22:35;;;;;;;19.02;13.20;;;;;;;-9.51;100.00;146292.56;10634736;27;20165;-76
2024/01/11 06:27:37;;;;;;;24.70;11.75;;;;;;;-9.49;100.00;146297.59;10633417;27;20043;-76
2024/01/11 06:32:38;;;;;;;28.55;14.27;;;;;;;-9.52;100.00;146288.72;10630530;27;20474;-76
2024/01/11 06:37:41;;;;;;;29.92;15.95;;;;;;;-8.94;100.00;146433.44;10631915;27;20069;-76
2024/01/11 06:42:43;;;;;;;19.80;13.52;;;;;;;-9.35;99.97;146330.59;10631834;27;20092;-76
2024/01/11 06:47:48;;;;;;;27.70;16.27;;;;;;;-9.07;100.00;146401.72;10632520;27;20043;-76
2024/01/11 06:52:51;;;;;;;25.88;14.55;;;;;;;-9.31;100.00;146340.75;10634325;27;20055;-77
2024/01/11 06:57:53;;;;;;;27.75;12.13;;;;;;;-8.97;100.00;146427.09;10630000;27;20106;-76
2024/01/11 07:02:55;;;;;;;16.55;10.57;;;;;;;-9.17;100.00;146377.56;10628641;27;20084;-77
2024/01/11 07:07:56;;;;;;;16.60;10.20;;;;;;;-9.18;100.00;146375.03;10628535;27;20042;-76
2024/01/11 07:12:58;;;;;;;20.58;13.20;;;;;;;-8.83;100.00;146460.13;10630084;27;20039;-76
2024/01/11 07:18:00;;;;;;;20.98;12.02;;;;;;;-8.81;100.00;146466.44;10629560;27;20383;-76
2024/01/11 07:23:02;;;;;;;21.73;12.35;;;;;;;-8.68;100.00;146498.22;10629792;27;20031;-76
2024/01/11 07:28:04;;;;;;;20.55;11.02;;;;;;;-8.56;100.00;146528.72;10630041;27;20039;-76
2024/01/11 07:33:06;;;;;;;23.38;12.88;;;;;;;-8.51;100.00;146540.13;10627896;27;20046;-78
2024/01/11 07:38:11;;;;;;;15.57;11.45;;;;;;;-8.47;98.62;146550.31;10629169;27;20088;-77
2024/01/11 07:43:14;;;;;;;20.75;9.60;;;;;;;-8.46;100.00;146554.09;10626888;27;20039;-76
2024/01/11 07:48:15;;;;;;;13.95;11.43;;;;;;;-8.52;99.87;146537.59;10628477;27;20083;-77
2024/01/11 07:53:17;;;;;;;39.28;13.60;;;;;;;-8.11;99.82;146640.47;10629022;27;20039;-77
2024/01/11 07:58:20;;;;;;;37.67;16.10;;;;;;;-8.07;98.17;146650.63;10629640;27;20039;-77
2024/01/11 08:03:22;;;;;;;19.50;13.32;;;;;;;-8.31;99.28;146589.66;10628405;27;20042;-77
2024/01/11 08:08:24;;;;;;;20.17;12.00;;;;;;;-8.41;99.94;146566.84;10628039;27;20039;-77
2024/01/11 08:13:26;;;;;;;18.88;10.95;;;;;;;-8.13;99.65;146636.66;10626482;27;20043;-76
2024/01/11 08:18:28;;;;;;;16.55;11.10;;;;;;;-7.55;99.21;146779.03;10628434;27;20112;-77
2024/01/11 08:23:31;;;;;;;19.55;11.98;;;;;;;-7.82;97.96;146712.94;10628276;27;20076;-77
2024/01/11 08:28:35;;;;;;;22.45;12.90;;;;;;;-7.98;100.00;146672.25;10631699;27;20070;-78
2024/01/11 08:33:37;;;;;;;20.05;12.10;;;;;;;-7.76;100.00;146728.16;10628876;27;20427;-77
2024/01/11 08:38:42;;;;;;;16.80;12.57;;;;;;;-7.45;100.00;146805.72;10629639;27;20393;-78
2024/01/11 08:43:44;;;;;;;29.17;17.42;;;;;;;-7.30;98.81;146841.31;10629191;27;20095;-78
2024/01/11 08:48:46;;;;;;;44.47;18.00;;;;;;;-7.18;100.00;146871.88;10630336;27;20126;-77
2024/01/11 08:53:48;;;;;;;26.73;13.63;;;;;;;-6.86;99.00;146953.31;10632279;27;20035;-78
2024/01/11 08:58:50;;;;;;;33.33;16.55;;;;;;;-6.78;99.14;146972.38;10628473;27;20122;-77
2024/01/11 09:03:51;;;;;;;25.48;15.98;;;;;;;-6.67;98.05;147000.38;10626923;27;20076;-77
2024/01/11 09:08:53;;;;;;;40.00;15.93;;;;;;;-6.61;96.95;147014.38;10627406;28;20054;-77
2024/01/11 09:13:57;;;;;;;41.20;17.73;;;;;;;-6.37;96.35;147075.50;10635490;27;20048;-78
2024/01/11 09:19:02;;;;;;;33.80;16.92;;;;;;;-6.00;93.98;147167.13;10636252;27;20092;-77
2024/01/11 09:24:04;;;;;;;42.63;20.40;;;;;;;-5.93;94.42;147183.66;10636674;27;20078;-77
2024/01/11 09:29:06;;;;;;;50.55;20.77;;;;;;;-5.92;93.44;147187.53;10636832;27;20063;-77
2024/01/11 09:34:08;;;;;;;43.47;22.13;;;;;;;-6.03;94.34;147159.47;10634825;27;20133;-76
2024/01/11 09:39:09;;;;;;;50.47;22.75;;;;;;;-5.97;94.50;147174.78;10634592;27;20063;-78
2024/01/11 09:44:12;;;;;;;47.72;21.15;;;;;;;-5.65;96.53;147253.69;10616509;27;20075;-77
2024/01/11 09:49:16;;;;;;;56.17;24.33;;;;;;;-5.50;96.41;147290.63;10636031;27;20403;-78
2024/01/11 09:54:20;;;;;;;53.38;23.52;;;;;;;-4.93;92.99;147433.34;10635591;27;20043;-77
2024/01/11 09:59:24;;;;;;;58.85;23.88;;;;;;;-4.51;90.16;147537.91;10635120;27;20449;-77
2024/01/11 10:04:27;;;;;;;64.57;25.15;;;;;;;-4.80;91.34;147466.50;10636165;27;20050;-77
2024/01/11 10:09:28;;;;;;;57.03;26.25;;;;;;;-4.69;92.05;147493.25;10639074;27;20510;-78
2024/01/11 10:14:31;;;;;;;65.93;26.23;;;;;;;-4.07;88.57;147648.88;10638415;27;20064;-78
2024/01/11 10:19:33;;;;;;;58.20;25.42;;;;;;;-4.29;88.57;147594.00;10636457;27;20039;-77
2024/01/11 10:24:36;;;;;;;66.47;25.60;;;;;;;-4.45;91.27;147553.19;10634454;27;20122;-77
2024/01/11 10:29:38;;;;;;;60.75;25.60;;;;;;;-4.08;88.21;147646.28;10633884;27;20043;-78
2024/01/11 10:34:41;;;;;;;64.68;26.10;;;;;;;-4.23;88.72;147609.31;10633126;27;20092;-78
2024/01/11 10:39:43;;;;;;;69.90;26.85;;;;;;;-4.13;88.20;147633.53;10615115;27;20051;-77
2024/01/11 10:44:48;;;;;;;70.45;27.35;;;;;;;-4.00;89.45;147665.44;10632917;27;20039;-78
2024/01/11 10:49:53;;;;;;;68.65;27.02;;;;;;;-3.95;89.52;147678.16;10632753;27;20138;-77
2024/01/11 10:54:57;;;;;;;58.95;26.20;;;;;;;-3.87;89.37;147698.59;10631472;27;20039;-77
2024/01/11 11:00:03;;;;;;;75.57;27.23;;;;;;;-3.69;90.52;147744.53;10631442;27;20117;-77
2024/01/11 11:05:09;;;;;;;66.88;28.38;;;;;;;-3.88;90.13;147696.06;10632105;27;20071;-79
2024/01/11 11:10:13;;;;;;;64.90;26.55;;;;;;;-3.85;90.52;147703.69;10632092;27;20410;-78
2024/01/11 11:15:15;;;;;;;47.15;21.15;;;;;;;-2.72;79.27;147987.06;10630793;27;20067;-78
2024/01/11 11:20:17;;;;;;;29.35;15.88;;;;;;;-2.56;75.92;148027.97;10631126;27;20132;-78
2024/01/11 11:25:25;;;;;;;33.97;16.95;;;;;;;-1.21;70.93;148364.06;10631108;27;20105;-77
2024/01/11 11:30:28;;;;;;;25.60;15.90;;;;;;;-0.54;64.75;148534.19;10634692;27;20070;-78
2024/01/11 11:35:29;;;;;;;27.08;14.82;;;;;;;0.54;62.99;148804.34;10634233;27;20039;-77
2024/01/11 11:40:40;;;;;;;26.50;15.95;;;;;;;2.17;54.32;149213.16;10632801;27;20050;-77
2024/01/11 11:45:42;;;;;;;27.17;17.60;;;;;;;2.12;53.35;149201.59;10630218;27;20495;-77
2024/01/11 11:50:45;;;;;;;20.88;15.80;;;;;;;2.08;53.20;149191.41;10629706;27;20046;-76
2024/01/11 11:55:47;;;;;;;26.48;13.27;;;;;;;1.44;51.73;149031.09;10629732;27;20050;-77
2024/01/11 12:00:49;;;;;;;28.05;15.45;;;;;;;1.17;51.71;148961.91;10628229;27;20035;-77
2024/01/11 12:05:51;;;;;;;20.65;13.55;;;;;;;0.12;52.15;148698.03;10627519;27;20039;-77
2024/01/11 12:10:53;;;;;;;19.98;14.75;;;;;;;-0.48;55.27;148547.03;10627070;27;20053;-76
2024/01/11 12:15:55;;;;;;;27.98;15.05;;;;;;;-1.06;55.66;148403.75;10628969;27;20479;-77
2024/01/11 12:20:57;;;;;;;18.65;13.52;;;;;;;-0.78;55.33;148474.09;10609928;27;20047;-77
2024/01/11 12:26:02;;;;;;;21.45;13.65;;;;;;;-0.93;57.09;148435.72;10629867;27;20138;-76
2024/01/11 12:31:04;;;;;;;29.58;15.05;;;;;;;-0.95;57.81;148429.31;10633049;27;20102;-77
2024/01/11 12:36:08;;;;;;;30.13;16.25;;;;;;;-1.10;59.09;148392.22;10635959;28;20402;-77
2024/01/11 12:41:11;;;;;;;31.60;15.77;;;;;;;-1.13;56.48;148385.81;10634170;28;20043;-77
2024/01/11 12:46:13;;;;;;;33.15;14.65;;;;;;;-1.04;56.19;148407.56;10635952;27;20066;-77
2024/01/11 12:51:19;;;;;;;25.42;15.73;;;;;;;-0.94;57.14;148431.84;10643530;27;20046;-78
2024/01/11 12:56:24;;;;;;;28.27;14.80;;;;;;;-0.88;53.46;148447.25;10642424;27;20035;-78
2024/01/11 13:01:26;;;;;;;29.00;14.95;;;;;;;-1.31;54.32;148341.06;10643388;27;20035;-78
2024/01/11 13:06:34;;;;;;;25.27;15.25;;;;;;;-1.19;52.53;148370.50;10648368;27;20062;-78
2024/01/11 13:11:36;;;;;;;26.10;15.35;;;;;;;-1.40;54.75;148316.78;10647844;27;20046;-79
2024/01/11 13:16:38;;;;;;;31.35;16.20;;;;;;;-1.36;56.37;148328.28;10646915;27;20509;-78
2024/01/11 13:21:43;;;;;;;30.55;15.23;;;;;;;-1.37;56.41;148324.47;10646971;27;20043;-78
2024/01/11 13:26:45;;;;;;;25.67;15.40;;;;;;;-1.65;56.46;148255.38;10646145;27;20039;-79
2024/01/11 13:31:47;;;;;;;26.20;13.80;;;;;;;-1.48;56.40;148296.31;10650591;27;20054;-80
2024/01/11 13:36:49;;;;;;;37.15;15.98;;;;;;;-1.35;56.17;148330.84;10643690;27;20040;-78
2024/01/11 13:41:51;;;;;;;33.22;14.45;;;;;;;-1.68;58.07;148246.44;10645007;27;20086;-76
2024/01/11 13:46:53;;;;;;;31.63;16.17;;;;;;;-1.53;56.41;148286.09;10641054;27;20062;-78
2024/01/11 13:51:55;;;;;;;30.65;16.17;;;;;;;-1.66;57.05;148251.56;10641371;27;20043;-79
2024/01/11 13:57:03;;;;;;;27.92;15.63;;;;;;;-1.60;55.97;148268.16;10640173;27;20384;-78
2024/01/11 14:02:05;;;;;;;37.15;19.25;;;;;;;-1.75;56.09;148228.56;10641204;27;20053;-78
2024/01/11 14:07:07;;;;;;;31.05;15.52;;;;;;;-1.90;56.23;148191.50;10640461;27;20043;-78
2024/01/11 14:12:10;;;;;;;31.10;17.08;;;;;;;-1.88;56.75;148196.59;10641946;27;20051;-77
2024/01/11 14:17:12;;;;;;;27.52;15.93;;;;;;;-1.64;55.47;148257.97;10639859;27;20074;-78
2024/01/11 14:22:14;;;;;;;33.58;16.50;;;;;;;-1.86;55.96;148203.00;10641383;27;20050;-78
2024/01/11 14:27:16;;;;;;;32.35;14.93;;;;;;;-2.05;55.59;148155.69;10621847;27;20032;-78
2024/01/11 14:32:18;;;;;;;33.45;14.15;;;;;;;-2.17;56.17;148125.06;10597938;28;20131;-77
2024/01/11 14:37:37;;;;;;;59.22;26.60;;;;;;;-1.97;55.52;148174.88;10592385;28;20032;-79
2024/01/11 14:42:40;;;;;;;21.30;15.20;;;;;;;-2.04;55.57;148158.28;10589884;28;20392;-78
2024/01/11 14:47:41;;;;;;;53.17;22.55;;;;;;;-2.11;56.86;148139.09;10589127;28;20043;-76
2024/01/11 14:52:44;;;;;;;31.65;18.48;;;;;;;-2.56;59.38;148026.69;10588423;28;20147;-77
2024/01/11 14:57:46;;;;;;;40.10;18.27;;;;;;;-2.55;59.95;148029.22;10589021;28;20043;-76
2024/01/11 15:02:49;;;;;;;29.67;17.23;;;;;;;-2.58;61.05;148022.81;10590399;28;20043;-79
2024/01/11 15:07:53;;;;;;;43.72;18.48;;;;;;;-2.80;62.95;147967.91;10589572;27;20099;-77
2024/01/11 15:12:56;;;;;;;42.35;18.33;;;;;;;-2.58;62.11;148022.81;10591254;28;20046;-79
2024/01/11 15:17:58;;;;;;;40.75;18.52;;;;;;;-2.83;63.77;147960.28;10588407;28;20062;-79
2024/01/11 15:23:00;;;;;;;38.72;18.48;;;;;;;-3.05;65.71;147904.09;10585656;28;20142;-78
2024/01/11 15:28:02;;;;;;;38.28;19.08;;;;;;;-3.10;65.45;147892.59;10586904;28;20039;-78
2024/01/11 15:33:04;;;;;;;36.20;16.10;;;;;;;-3.07;65.33;147900.22;10588980;28;20074;-78
2024/01/11 15:38:06;;;;;;;41.10;18.10;;;;;;;-3.25;66.17;147853.00;10590827;28;20070;-78
2024/01/11 15:43:07;;;;;;;38.47;19.25;;;;;;;-3.39;67.37;147818.56;10590862;28;20039;-77
2024/01/11 15:48:09;;;;;;;45.50;18.58;;;;;;;-3.42;67.21;147812.16;10586507;28;20048;-77
2024/01/11 15:53:11;;;;;;;43.03;18.85;;;;;;;-3.50;67.45;147791.72;10586080;28;20118;-78
2024/01/11 15:58:13;;;;;;;35.70;18.05;;;;;;;-3.68;68.60;147745.78;10587081;28;20046;-78
2024/01/11 16:03:15;;;;;;;36.60;17.58;;;;;;;-3.64;68.35;147757.28;10588048;28;20048;-77
2024/01/11 16:08:17;;;;;;;41.90;18.17;;;;;;;-3.63;69.10;147759.84;10592965;28;20039;-76
2024/01/11 16:13:18;;;;;;;37.88;18.15;;;;;;;-3.85;69.92;147705.00;10596238;28;20063;-78
2024/01/11 16:18:20;;;;;;;40.40;18.00;;;;;;;-3.97;70.64;147673.09;10594714;28;20099;-78
2024/01/11 16:23:23;;;;;;;42.00;19.50;;;;;;;-4.12;71.69;147637.38;10594584;28;20380;-77
2024/01/11 16:28:24;;;;;;;33.47;16.80;;;;;;;-4.23;72.61;147609.31;10587808;28;20047;-77
2024/01/11 16:33:28;;;;;;;40.95;19.30;;;;;;;-4.22;72.88;147611.84;10619902;27;20041;-79
2024/01/11 16:38:30;;;;;;;45.50;19.08;;;;;;;-4.09;72.77;147643.72;10629398;28;20047;-75
2024/01/11 16:43:31;;;;;;;43.28;18.45;;;;;;;-3.89;72.53;147693.50;10625350;27;20043;-78
2024/01/11 16:48:33;;;;;;;42.67;19.45;;;;;;;-4.18;74.41;147622.06;10628259;27;20039;-76
2024/01/11 16:53:35;;;;;;;34.83;16.88;;;;;;;-4.24;75.13;147606.75;10626462;28;20043;-76
2024/01/11 16:58:38;;;;;;;36.13;18.08;;;;;;;-4.07;74.99;147648.88;10627998;27;20073;-75
2024/01/11 17:03:39;;;;;;;49.42;18.08;;;;;;;-4.14;75.86;147632.25;10626700;27;20054;-77
2024/01/11 17:08:41;;;;;;;46.20;20.33;;;;;;;-4.15;76.53;147628.44;10625307;28;20054;-76
2024/01/11 17:13:44;;;;;;;43.35;20.70;;;;;;;-4.13;76.94;147634.78;10628359;27;20035;-76
2024/01/11 17:18:46;;;;;;;32.55;17.45;;;;;;;-4.16;77.20;147627.19;10627944;28;20046;-77
2024/01/11 17:23:48;;;;;;;35.20;17.08;;;;;;;-4.04;76.90;147656.47;10628232;27;20456;-77
2024/01/11 17:28:50;;;;;;;31.27;16.42;;;;;;;-4.07;77.30;147648.88;10614297;27;20035;-75
2024/01/11 17:33:51;;;;;;;33.63;17.42;;;;;;;-3.83;76.39;147708.81;10629314;27;20406;-77
2024/01/11 17:38:54;;;;;;;33.75;17.27;;;;;;;-3.92;76.43;147687.09;10636049;27;20043;-78
2024/01/11 17:43:56;;;;;;;28.53;15.77;;;;;;;-4.01;77.31;147662.88;10635200;27;20406;-78
2024/01/11 17:48:58;;;;;;;29.80;15.48;;;;;;;-4.04;77.85;147655.22;10634698;27;20439;-78
2024/01/11 17:54:00;;;;;;;33.67;16.42;;;;;;;-3.91;77.75;147689.66;10631135;27;20050;-77
2024/01/11 17:59:05;;;;;;;22.45;13.30;;;;;;;-3.71;77.24;147738.16;10632844;27;20529;-77
2024/01/11 18:04:07;;;;;;;21.58;14.68;;;;;;;-3.86;77.85;147701.13;10633011;27;20476;-77
2024/01/11 18:09:10;;;;;;;35.30;16.05;;;;;;;-3.65;77.45;147754.72;10633310;27;20407;-78
2024/01/11 18:14:12;;;;;;;37.42;17.42;;;;;;;-3.60;77.87;147767.47;10639087;27;20499;-77
2024/01/11 18:19:14;;;;;;;24.45;15.20;;;;;;;-3.46;77.23;147800.66;10635930;27;20410;-77
2024/01/11 18:24:17;;;;;;;32.58;15.82;;;;;;;-3.70;79.42;147740.72;10630945;27;20047;-77
2024/01/11 18:29:21;;;;;;;13.40;11.60;;;;;;;-3.46;77.95;147800.66;10633490;27;20410;-76
2024/01/11 18:34:23;;;;;;;17.55;11.55;;;;;;;-3.51;79.42;147787.91;10635041;27;20406;-77
2024/01/11 18:39:25;;;;;;;16.77;11.75;;;;;;;-3.41;80.76;147814.75;10633766;27;20092;-77
2024/01/11 18:44:28;;;;;;;14.77;10.70;;;;;;;-3.49;83.44;147794.31;10633132;27;20119;-78
2024/01/11 18:49:29;;;;;;;13.82;11.27;;;;;;;-3.32;83.19;147837.72;10634531;27;20424;-77
2024/01/11 18:54:32;;;;;;;13.60;10.10;;;;;;;-3.47;85.12;147799.41;10632394;27;20043;-77
2024/01/11 18:59:34;;;;;;;14.52;10.45;;;;;;;-3.25;85.36;147854.28;10614966;27;20221;-75
2024/01/11 19:04:36;;;;;;;12.52;9.57;;;;;;;-3.28;84.97;147846.59;10630931;27;20047;-77
2024/01/11 19:09:38;;;;;;;12.45;8.85;;;;;;;-3.24;85.60;147855.56;10633071;27;20075;-78
2024/01/11 19:14:40;;;;;;;16.13;10.95;;;;;;;-3.33;86.43;147833.84;10641441;27;20047;-77
2024/01/11 19:19:41;;;;;;;18.23;10.80;;;;;;;-3.52;87.72;147785.38;10650739;27;20050;-77
2024/01/11 19:24:43;;;;;;;21.15;10.10;;;;;;;-3.58;89.32;147772.63;10636229;27;20066;-78
2024/01/11 19:29:45;;;;;;;17.85;11.02;;;;;;;-3.57;88.72;147775.16;10637645;27;20055;-78
2024/01/11 19:34:48;;;;;;;16.45;11.27;;;;;;;-3.68;89.58;147747.06;10642835;27;20463;-79
2024/01/11 19:39:52;;;;;;;18.83;10.77;;;;;;;-3.35;87.90;147830.03;10648873;27;20112;-79
2024/01/11 19:44:55;;;;;;;13.43;9.18;;;;;;;-3.38;89.00;147821.09;10642169;27;20438;-78
2024/01/11 19:49:57;;;;;;;18.77;11.13;;;;;;;-3.41;89.46;147814.75;10667986;27;20050;-79
2024/01/11 19:54:59;;;;;;;15.95;10.30;;;;;;;-3.35;89.82;147828.75;10642078;27;20043;-79
2024/01/11 20:00:01;;;;;;;13.68;9.88;;;;;;;-3.39;90.74;147819.81;10638719;27;20096;-79
2024/01/11 20:05:11;;;;;;;14.85;9.68;;;;;;;-3.28;89.82;147846.59;10638959;27;20054;-78
2024/01/11 20:10:14;;;;;;;14.82;10.15;;;;;;;-3.29;90.64;147844.06;10630614;27;20179;-77
2024/01/11 20:15:15;;;;;;;17.48;10.50;;;;;;;-3.19;90.66;147869.59;10629468;27;20532;-78
2024/01/11 20:20:17;;;;;;;11.60;8.38;;;;;;;-3.27;91.00;147849.19;10631434;27;20092;-76
2024/01/11 20:25:19;;;;;;;14.63;10.07;;;;;;;-3.27;91.58;147849.19;10633077;27;20380;-78
2024/01/11 20:30:21;;;;;;;12.80;10.25;;;;;;;-3.23;91.42;147859.41;10637917;27;20123;-79
2024/01/11 20:35:24;;;;;;;12.05;9.60;;;;;;;-3.20;92.11;147867.03;10635655;27;20084;-79
2024/01/11 20:40:26;;;;;;;16.33;9.23;;;;;;;-3.15;93.77;147878.53;10633748;27;20043;-78
2024/01/11 20:45:28;;;;;;;14.30;9.00;;;;;;;-3.07;94.04;147898.97;10631730;27;20066;-79
2024/01/11 20:50:30;;;;;;;15.48;9.63;;;;;;;-3.17;95.10;147874.72;10631554;27;20100;-79
2024/01/11 20:55:32;;;;;;;14.88;11.02;;;;;;;-3.13;95.72;147884.94;10633965;27;20067;-78
2024/01/11 21:00:33;;;;;;;14.52;9.52;;;;;;;-3.13;96.88;147883.66;10630623;27;20521;-78
2024/01/11 21:05:35;;;;;;;18.08;10.75;;;;;;;-3.13;96.92;147884.94;10632772;27;20046;-79
2024/01/11 21:10:37;;;;;;;16.77;9.55;;;;;;;-3.10;97.32;147891.28;10639167;27;20118;-78
2024/01/11 21:15:39;;;;;;;11.50;9.48;;;;;;;-2.96;96.53;147925.81;10640477;27;20043;-78
2024/01/11 21:20:43;;;;;;;18.30;10.23;;;;;;;-3.09;97.68;147893.88;10638565;27;20088;-78
2024/01/11 21:25:45;;;;;;;13.80;10.30;;;;;;;-2.99;96.75;147919.41;10639520;27;20053;-78
2024/01/11 21:30:47;;;;;;;12.00;9.23;;;;;;;-2.99;97.59;147918.13;10640365;27;20096;-78
2024/01/11 21:35:48;;;;;;;20.75;11.05;;;;;;;-3.20;98.97;147867.03;10638289;27;20047;-77
2024/01/11 21:40:51;;;;;;;15.07;10.55;;;;;;;-3.13;98.46;147884.94;10640686;27;20046;-80
2024/01/11 21:45:53;;;;;;;21.95;11.68;;;;;;;-2.82;96.79;147961.53;10637697;27;20060;-78
2024/01/11 21:50:55;;;;;;;20.10;11.82;;;;;;;-3.05;98.33;147905.38;10639417;27;20388;-78
2024/01/11 21:55:57;;;;;;;19.63;12.35;;;;;;;-3.11;99.05;147890.00;10636502;27;20039;-78
2024/01/11 22:00:58;;;;;;;14.70;10.10;;;;;;;-2.74;96.58;147981.97;10636698;27;20126;-78
2024/01/11 22:06:00;;;;;;;17.52;10.45;;;;;;;-2.69;96.22;147993.47;10635594;27;20043;-78
2024/01/11 22:11:03;;;;;;;12.25;10.02;;;;;;;-2.74;97.31;147980.72;10634362;27;20043;-79
2024/01/11 22:16:07;;;;;;;17.90;10.40;;;;;;;-2.70;96.50;147990.88;10634595;27;20036;-77
2024/01/11 22:21:09;;;;;;;16.02;10.20;;;;;;;-2.61;95.53;148015.19;10631967;27;20058;-77
2024/01/11 22:26:11;;;;;;;20.08;10.77;;;;;;;-2.57;95.59;148024.09;10634618;27;20038;-76
2024/01/11 22:31:13;;;;;;;15.57;10.80;;;;;;;-2.54;95.66;148033.03;10633795;27;20068;-77
2024/01/11 22:36:15;;;;;;;17.63;10.32;;;;;;;-2.68;97.76;147996.03;10633125;27;20086;-79
2024/01/11 22:41:17;;;;;;;16.02;9.18;;;;;;;-2.68;98.45;147997.28;10633206;27;20053;-78